Denton, NE

5:53 PM CDT on March 27, 2015 (GMT -0500)
KNELINCO37 | | Change Station
CLOSE
Current Station
Personal Weather Station
Location: Denton, NE
Elevation: 1243 ft
Nearby Weather Stations

Elev 1243 ft 40.76 °N, 96.83 °W | Updated 3 minutes ago

Overcast
Overcast
38.4 °F
Feels Like 38 °F
N
0.0
Wind Variable Wind from SW
Gusts 0.0 mph

Today
High -- | Low -- °F
--% Chance of Precip.
Yesterday
High -- | Low -- °F
Precip. -- in
7:19 AM 7:46 PM
First Quarter, 56% visible
Pressure 30.20 in
Visibility 10.0 miles
Clouds Overcast 7000 ft
Windchill 38 °F
Dew Point 27 °F
Humidity 64%
Rainfall 0.00 in
Snow Depth Not available.
UV 1 out of 12
Pollen 6.10 out of 12
Air Quality Not available.
Flu Activity Not available.
METAR KLNK 272154Z 24007KT 10SM OVC070 04/M05 A3016 RMK AO2 RAB35E48 SLP225 P0000 T00391050

More Conditions Fewer Conditions

Pressure 30.20 in
Visibility 10.0 miles
Clouds Overcast 7000 ft
Windchill 38 °F
Dew Point 27 °F
Humidity 64%
Rainfall 0.00 in
Snow Depth Not available.
UV 1 out of 12
Pollen 6.10 out of 12
Air Quality Not available.
Flu Activity Not available.
METAR KLNK 272154Z 24007KT 10SM OVC070 04/M05 A3016 RMK AO2 RAB35E48 SLP225 P0000 T00391050

More Conditions Fewer Conditions

10-Day Weather Forecast

Almanac

Astronomy

Mar. 27, 2015 Rise Set
Actual Time
Civil Twilight
Nautical Twilight
Astronomical Twilight
Moon
Length of Visible Light
Length of Day
Tomorrow will be .
, % of the Moon is Illuminated

Today's Extremes

State Highs State Lows

Community

WunderPhotos

Upload Photos

1,808,856 photos uploaded!

WunderBlogs® & News

Nearby

Air Quality

  Air Quality AQ Index Pollutant
Not available.

Snow Depth

Station Depth Elevation

Earthquake Activity

City Distance Mag. Time & Date
Minimum magnitude displayed is 2.5.

Coastal Water Temperatures

Place Temperature

Stations

Nearby Weather Stations

Station Location Temp. Windchill Dew Point Humidity Wind Precip. Elev Updated Type